Terminal Aerodrome Forecast
Issued by NWS

Home | Current Version | Previous Version | Text Only | Print | Product List | Glossary On
Versions: 1 2 3 4 5 6 7 8 9 10 11 12 13 14 15 16 17 18 19 20 21 22 23 24 25 26 27 28 29 30 31 32 33 34 35 36 37 38 39 40 41 42 43 44 45 46 47 48 49 50
000
FTUS42 KRAH 020009 CCA
TAFINT
TAF COR
KINT 020009Z 0200/0224 21005KT P6SM VCSH SCT025 SCT035
      TEMPO 0200/0204 VRB16G28KT 3SM -TSRA BR SCT012 BKN024CB
     FM020500 21004KT P6SM VCSH BKN035
     FM021000 21005KT 6SM BR OVC007
     FM021400 23008KT P6SM SCT025 SCT250=

USA.gov is the U.S. government's official web portal to all federal, state and local government web resources and services.